sensor_id;sensor_type;location;lat;lon;timestamp;pressure;altitude;pressure_sealevel;temperature;humidity
62725;BME280;49026;52.600;4.694;2022-10-22T00:00:07;100789.16;;;13.41;83.50
62725;BME280;49026;52.600;4.694;2022-10-22T00:02:32;100786.69;;;13.38;83.47
62725;BME280;49026;52.600;4.694;2022-10-22T00:04:58;100780.63;;;13.36;83.97
62725;BME280;49026;52.600;4.694;2022-10-22T00:07:23;100776.34;;;13.33;84.19
62725;BME280;49026;52.600;4.694;2022-10-22T00:09:49;100780.91;;;13.29;83.97
62725;BME280;49026;52.600;4.694;2022-10-22T00:12:15;100776.00;;;13.23;83.58
62725;BME280;49026;52.600;4.694;2022-10-22T00:14:41;100775.25;;;13.20;84.38
62725;BME280;49026;52.600;4.694;2022-10-22T00:17:09;100775.53;;;13.15;84.45
62725;BME280;49026;52.600;4.694;2022-10-22T00:19:40;100768.84;;;13.08;83.66
62725;BME280;49026;52.600;4.694;2022-10-22T00:22:06;100773.44;;;13.04;84.24
62725;BME280;49026;52.600;4.694;2022-10-22T00:24:33;100776.28;;;13.00;84.40
62725;BME280;49026;52.600;4.694;2022-10-22T00:27:01;100775.69;;;12.94;83.90
62725;BME280;49026;52.600;4.694;2022-10-22T00:29:27;100772.28;;;12.92;84.99
62725;BME280;49026;52.600;4.694;2022-10-22T00:31:52;100777.78;;;12.88;84.38
62725;BME280;49026;52.600;4.694;2022-10-22T00:34:19;100777.00;;;12.86;84.24
62725;BME280;49026;52.600;4.694;2022-10-22T00:36:48;100778.03;;;12.83;85.67
62725;BME280;49026;52.600;4.694;2022-10-22T00:39:18;100780.66;;;12.83;85.68
62725;BME280;49026;52.600;4.694;2022-10-22T00:41:47;100773.53;;;12.85;86.05
62725;BME280;49026;52.600;4.694;2022-10-22T00:47:17;100781.03;;;12.93;86.74
62725;BME280;49026;52.600;4.694;2022-10-22T00:49:44;100776.47;;;12.96;88.42
62725;BME280;49026;52.600;4.694;2022-10-22T00:52:11;100787.66;;;13.02;87.76
62725;BME280;49026;52.600;4.694;2022-10-22T00:54:37;100782.03;;;13.08;87.87
62725;BME280;49026;52.600;4.694;2022-10-22T00:57:03;100794.06;;;13.13;86.99
62725;BME280;49026;52.600;4.694;2022-10-22T00:59:32;100798.31;;;13.16;85.98
62725;BME280;49026;52.600;4.694;2022-10-22T01:01:58;100795.53;;;13.19;85.40
62725;BME280;49026;52.600;4.694;2022-10-22T01:04:23;100796.28;;;13.21;85.38
62725;BME280;49026;52.600;4.694;2022-10-22T01:06:49;100804.22;;;13.21;84.44
62725;BME280;49026;52.600;4.694;2022-10-22T01:12:00;100804.13;;;13.23;84.18
62725;BME280;49026;52.600;4.694;2022-10-22T01:17:17;100802.28;;;13.25;84.29
62725;BME280;49026;52.600;4.694;2022-10-22T01:20:05;100805.78;;;13.25;84.00
62725;BME280;49026;52.600;4.694;2022-10-22T01:22:41;100808.34;;;13.27;84.21
62725;BME280;49026;52.600;4.694;2022-10-22T01:25:33;100802.91;;;13.30;84.45
62725;BME280;49026;52.600;4.694;2022-10-22T01:30:34;100802.69;;;13.34;84.37
62725;BME280;49026;52.600;4.694;2022-10-22T01:33:03;100798.28;;;13.35;84.94
62725;BME280;49026;52.600;4.694;2022-10-22T01:35:35;100799.88;;;13.38;84.59
62725;BME280;49026;52.600;4.694;2022-10-22T01:38:06;100798.88;;;13.40;84.35
62725;BME280;49026;52.600;4.694;2022-10-22T01:40:34;100789.94;;;13.43;84.07
62725;BME280;49026;52.600;4.694;2022-10-22T01:43:02;100794.22;;;13.45;84.87
62725;BME280;49026;52.600;4.694;2022-10-22T01:45:32;100793.19;;;13.48;84.78
62725;BME280;49026;52.600;4.694;2022-10-22T01:53:30;100792.38;;;13.63;84.84
62725;BME280;49026;52.600;4.694;2022-10-22T01:56:14;100790.44;;;13.67;85.10
62725;BME280;49026;52.600;4.694;2022-10-22T01:58:51;100791.19;;;13.69;84.93
62725;BME280;49026;52.600;4.694;2022-10-22T02:04:19;100793.50;;;13.75;85.83
62725;BME280;49026;52.600;4.694;2022-10-22T02:06:49;100795.13;;;13.78;85.87
62725;BME280;49026;52.600;4.694;2022-10-22T02:09:17;100799.38;;;13.80;85.46
62725;BME280;49026;52.600;4.694;2022-10-22T02:11:47;100795.63;;;13.84;85.75
62725;BME280;49026;52.600;4.694;2022-10-22T02:14:15;100800.66;;;13.89;85.68
62725;BME280;49026;52.600;4.694;2022-10-22T02:16:44;100797.88;;;13.92;85.90
62725;BME280;49026;52.600;4.694;2022-10-22T02:19:23;100805.63;;;13.95;85.70
62725;BME280;49026;52.600;4.694;2022-10-22T02:21:49;100794.09;;;13.96;85.52
62725;BME280;49026;52.600;4.694;2022-10-22T02:24:15;100791.38;;;13.98;85.25
62725;BME280;49026;52.600;4.694;2022-10-22T02:26:48;100797.63;;;13.97;85.39
62725;BME280;49026;52.600;4.694;2022-10-22T02:29:23;100796.59;;;13.99;85.59
62725;BME280;49026;52.600;4.694;2022-10-22T02:31:52;100803.59;;;14.00;85.55
62725;BME280;49026;52.600;4.694;2022-10-22T02:34:23;100793.94;;;13.99;84.96
62725;BME280;49026;52.600;4.694;2022-10-22T02:36:51;100795.81;;;13.97;86.10
62725;BME280;49026;52.600;4.694;2022-10-22T02:39:18;100802.03;;;13.96;85.58
62725;BME280;49026;52.600;4.694;2022-10-22T02:41:45;100797.88;;;13.92;84.98
62725;BME280;49026;52.600;4.694;2022-10-22T02:44:12;100789.34;;;13.87;84.89
62725;BME280;49026;52.600;4.694;2022-10-22T02:46:41;100789.50;;;13.84;84.60
62725;BME280;49026;52.600;4.694;2022-10-22T02:49:07;100789.59;;;13.82;84.89
62725;BME280;49026;52.600;4.694;2022-10-22T02:51:33;100787.94;;;13.80;84.44
62725;BME280;49026;52.600;4.694;2022-10-22T02:53:58;100787.19;;;13.78;84.72
62725;BME280;49026;52.600;4.694;2022-10-22T02:56:23;100797.84;;;13.76;84.27
62725;BME280;49026;52.600;4.694;2022-10-22T02:58:48;100783.94;;;13.73;84.40
62725;BME280;49026;52.600;4.694;2022-10-22T03:01:16;100791.09;;;13.70;84.38
62725;BME280;49026;52.600;4.694;2022-10-22T03:03:41;100793.81;;;13.69;84.15
62725;BME280;49026;52.600;4.694;2022-10-22T03:06:07;100781.63;;;13.66;84.80
62725;BME280;49026;52.600;4.694;2022-10-22T03:08:32;100787.09;;;13.63;84.12
62725;BME280;49026;52.600;4.694;2022-10-22T03:10:57;100785.47;;;13.61;84.95
62725;BME280;49026;52.600;4.694;2022-10-22T03:13:23;100789.81;;;13.62;84.81
62725;BME280;49026;52.600;4.694;2022-10-22T03:15:49;100788.94;;;13.61;84.53
62725;BME280;49026;52.600;4.694;2022-10-22T03:18:15;100787.25;;;13.60;84.13
62725;BME280;49026;52.600;4.694;2022-10-22T03:20:40;100790.91;;;13.58;83.96
62725;BME280;49026;52.600;4.694;2022-10-22T03:23:05;100795.66;;;13.51;84.42
62725;BME280;49026;52.600;4.694;2022-10-22T03:25:40;100791.50;;;13.47;84.25
62725;BME280;49026;52.600;4.694;2022-10-22T03:28:08;100798.81;;;13.42;84.31
62725;BME280;49026;52.600;4.694;2022-10-22T03:30:35;100789.41;;;13.36;84.36
62725;BME280;49026;52.600;4.694;2022-10-22T03:33:00;100795.78;;;13.32;84.44
62725;BME280;49026;52.600;4.694;2022-10-22T03:35:26;100796.00;;;13.27;84.21
62725;BME280;49026;52.600;4.694;2022-10-22T03:37:51;100792.81;;;13.21;84.19
62725;BME280;49026;52.600;4.694;2022-10-22T03:40:18;100794.75;;;13.17;84.40
62725;BME280;49026;52.600;4.694;2022-10-22T03:42:44;100796.72;;;13.13;84.07
62725;BME280;49026;52.600;4.694;2022-10-22T03:45:12;100795.16;;;13.09;84.40
62725;BME280;49026;52.600;4.694;2022-10-22T03:47:37;100798.81;;;13.07;84.15
62725;BME280;49026;52.600;4.694;2022-10-22T03:50:03;100800.69;;;13.05;83.84
62725;BME280;49026;52.600;4.694;2022-10-22T03:52:37;100802.66;;;13.00;83.98
62725;BME280;49026;52.600;4.694;2022-10-22T03:55:08;100803.00;;;12.93;84.33
62725;BME280;49026;52.600;4.694;2022-10-22T03:57:36;100808.34;;;12.92;84.41
62725;BME280;49026;52.600;4.694;2022-10-22T04:00:03;100811.13;;;12.89;84.44
62725;BME280;49026;52.600;4.694;2022-10-22T04:02:31;100806.84;;;12.86;84.26
62725;BME280;49026;52.600;4.694;2022-10-22T04:04:59;100816.63;;;12.84;83.61
62725;BME280;49026;52.600;4.694;2022-10-22T04:07:24;100818.50;;;12.82;83.93
62725;BME280;49026;52.600;4.694;2022-10-22T04:09:49;100820.38;;;12.80;84.04
62725;BME280;49026;52.600;4.694;2022-10-22T04:12:14;100821.22;;;12.81;83.99
62725;BME280;49026;52.600;4.694;2022-10-22T04:14:42;100820.22;;;12.83;84.31
62725;BME280;49026;52.600;4.694;2022-10-22T04:17:08;100824.56;;;12.84;84.11
62725;BME280;49026;52.600;4.694;2022-10-22T04:19:33;100821.06;;;12.84;84.18
62725;BME280;49026;52.600;4.694;2022-10-22T04:22:01;100826.28;;;12.85;84.98
62725;BME280;49026;52.600;4.694;2022-10-22T04:24:28;100831.47;;;12.87;84.63
62725;BME280;49026;52.600;4.694;2022-10-22T04:26:54;100829.53;;;12.90;84.57
62725;BME280;49026;52.600;4.694;2022-10-22T04:29:19;100832.94;;;12.92;85.28
62725;BME280;49026;52.600;4.694;2022-10-22T04:31:45;100829.38;;;12.93;84.93
62725;BME280;49026;52.600;4.694;2022-10-22T04:34:12;100827.50;;;12.95;84.93
62725;BME280;49026;52.600;4.694;2022-10-22T04:36:38;100832.72;;;12.97;84.84
62725;BME280;49026;52.600;4.694;2022-10-22T04:39:04;100840.56;;;12.98;85.15
62725;BME280;49026;52.600;4.694;2022-10-22T04:41:33;100837.91;;;12.98;84.97
62725;BME280;49026;52.600;4.694;2022-10-22T04:43:59;100843.19;;;12.98;84.96
62725;BME280;49026;52.600;4.694;2022-10-22T04:46:26;100835.34;;;12.97;84.88
62725;BME280;49026;52.600;4.694;2022-10-22T04:48:52;100837.16;;;12.96;84.82
62725;BME280;49026;52.600;4.694;2022-10-22T04:51:19;100835.41;;;12.95;84.48
62725;BME280;49026;52.600;4.694;2022-10-22T04:53:48;100837.44;;;12.90;84.61
62725;BME280;49026;52.600;4.694;2022-10-22T04:56:21;100845.56;;;12.86;84.61
62725;BME280;49026;52.600;4.694;2022-10-22T04:58:49;100839.59;;;12.82;85.03
62725;BME280;49026;52.600;4.694;2022-10-22T05:01:20;100838.13;;;12.76;84.42
62725;BME280;49026;52.600;4.694;2022-10-22T05:03:48;100842.84;;;12.70;84.79
62725;BME280;49026;52.600;4.694;2022-10-22T05:06:16;100843.91;;;12.66;84.55
62725;BME280;49026;52.600;4.694;2022-10-22T05:08:42;100851.13;;;12.62;84.24
62725;BME280;49026;52.600;4.694;2022-10-22T05:11:16;100853.13;;;12.57;84.24
62725;BME280;49026;52.600;4.694;2022-10-22T05:13:42;100853.50;;;12.49;84.56
62725;BME280;49026;52.600;4.694;2022-10-22T05:16:11;100851.00;;;12.46;84.58
62725;BME280;49026;52.600;4.694;2022-10-22T05:18:38;100845.91;;;12.43;84.54
62725;BME280;49026;52.600;4.694;2022-10-22T05:21:07;100847.78;;;12.39;84.24
62725;BME280;49026;52.600;4.694;2022-10-22T05:23:33;100845.34;;;12.36;84.18
62725;BME280;49026;52.600;4.694;2022-10-22T05:26:05;100860.28;;;12.36;83.73
62725;BME280;49026;52.600;4.694;2022-10-22T05:28:32;100856.00;;;12.33;84.10
62725;BME280;49026;52.600;4.694;2022-10-22T05:30:58;100863.16;;;12.31;84.27
62725;BME280;49026;52.600;4.694;2022-10-22T05:33:28;100862.41;;;12.28;84.11
62725;BME280;49026;52.600;4.694;2022-10-22T05:35:57;100851.88;;;12.28;84.05
62725;BME280;49026;52.600;4.694;2022-10-22T05:38:22;100858.00;;;12.28;83.76
62725;BME280;49026;52.600;4.694;2022-10-22T05:41:01;100857.31;;;12.25;84.11
62725;BME280;49026;52.600;4.694;2022-10-22T05:43:28;100859.13;;;12.22;83.99
62725;BME280;49026;52.600;4.694;2022-10-22T05:45:53;100861.00;;;12.20;84.28
62725;BME280;49026;52.600;4.694;2022-10-22T05:48:19;100854.00;;;12.19;84.38
62725;BME280;49026;52.600;4.694;2022-10-22T05:50:44;100871.53;;;12.20;84.72
62725;BME280;49026;52.600;4.694;2022-10-22T05:53:16;100867.84;;;12.25;85.91
62725;BME280;49026;52.600;4.694;2022-10-22T05:55:42;100873.00;;;12.26;85.05
62725;BME280;49026;52.600;4.694;2022-10-22T05:58:08;100876.53;;;12.27;84.76
62725;BME280;49026;52.600;4.694;2022-10-22T06:00:34;100878.22;;;12.28;84.85
62725;BME280;49026;52.600;4.694;2022-10-22T06:03:01;100878.22;;;12.28;84.16
62725;BME280;49026;52.600;4.694;2022-10-22T06:05:33;100879.94;;;12.29;85.44
62725;BME280;49026;52.600;4.694;2022-10-22T06:08:01;100884.13;;;12.33;85.12
62725;BME280;49026;52.600;4.694;2022-10-22T06:10:27;100887.50;;;12.36;84.75
62725;BME280;49026;52.600;4.694;2022-10-22T06:12:52;100883.78;;;12.40;85.55
62725;BME280;49026;52.600;4.694;2022-10-22T06:15:18;100895.72;;;12.48;85.68
62725;BME280;49026;52.600;4.694;2022-10-22T06:17:45;100897.16;;;12.55;85.43
62725;BME280;49026;52.600;4.694;2022-10-22T06:20:11;100896.00;;;12.60;84.78
62725;BME280;49026;52.600;4.694;2022-10-22T06:22:42;100899.22;;;12.67;85.22
62725;BME280;49026;52.600;4.694;2022-10-22T06:25:08;100905.94;;;12.73;85.02
62725;BME280;49026;52.600;4.694;2022-10-22T06:27:33;100909.25;;;12.78;84.58
62725;BME280;49026;52.600;4.694;2022-10-22T06:29:59;100903.72;;;12.83;84.89
62725;BME280;49026;52.600;4.694;2022-10-22T06:32:24;100901.78;;;12.86;84.82
62725;BME280;49026;52.600;4.694;2022-10-22T06:34:50;100906.94;;;12.89;85.05
62725;BME280;49026;52.600;4.694;2022-10-22T06:37:16;100912.75;;;12.96;84.60
62725;BME280;49026;52.600;4.694;2022-10-22T06:39:41;100914.25;;;13.02;85.13
62725;BME280;49026;52.600;4.694;2022-10-22T06:42:06;100919.13;;;13.09;85.45
62725;BME280;49026;52.600;4.694;2022-10-22T06:44:32;100924.81;;;13.19;85.44
62725;BME280;49026;52.600;4.694;2022-10-22T06:46:59;100930.56;;;13.27;86.15
62725;BME280;49026;52.600;4.694;2022-10-22T06:49:26;100921.44;;;13.34;85.61
62725;BME280;49026;52.600;4.694;2022-10-22T06:51:52;100922.94;;;13.40;85.33
62725;BME280;49026;52.600;4.694;2022-10-22T06:54:19;100925.34;;;13.45;85.56
62725;BME280;49026;52.600;4.694;2022-10-22T06:56:44;100936.53;;;13.50;85.56
62725;BME280;49026;52.600;4.694;2022-10-22T06:59:13;100945.06;;;13.55;85.12
62725;BME280;49026;52.600;4.694;2022-10-22T07:01:38;100943.97;;;13.59;85.05
62725;BME280;49026;52.600;4.694;2022-10-22T07:04:06;100949.09;;;13.62;85.59
62725;BME280;49026;52.600;4.694;2022-10-22T07:06:32;100941.78;;;13.67;84.95
62725;BME280;49026;52.600;4.694;2022-10-22T07:08:58;100946.91;;;13.70;84.75
62725;BME280;49026;52.600;4.694;2022-10-22T07:11:26;100953.03;;;13.71;84.96
62725;BME280;49026;52.600;4.694;2022-10-22T07:13:57;100953.03;;;13.71;85.01
62725;BME280;49026;52.600;4.694;2022-10-22T07:16:22;100951.16;;;13.73;85.26
62725;BME280;49026;52.600;4.694;2022-10-22T07:18:48;100952.72;;;13.77;84.87
62725;BME280;49026;52.600;4.694;2022-10-22T07:21:16;100963.97;;;13.81;85.00
62725;BME280;49026;52.600;4.694;2022-10-22T07:23:43;100967.38;;;13.83;85.01
62725;BME280;49026;52.600;4.694;2022-10-22T07:26:13;100967.22;;;13.86;84.91
62725;BME280;49026;52.600;4.694;2022-10-22T07:28:39;100962.78;;;13.86;85.13
62725;BME280;49026;52.600;4.694;2022-10-22T07:31:07;100966.25;;;13.88;85.28
62725;BME280;49026;52.600;4.694;2022-10-22T07:33:33;100967.84;;;13.91;85.22
62725;BME280;49026;52.600;4.694;2022-10-22T07:36:03;100970.34;;;13.94;85.38
62725;BME280;49026;52.600;4.694;2022-10-22T07:38:28;100971.91;;;13.98;85.40
62725;BME280;49026;52.600;4.694;2022-10-22T07:40:54;100983.16;;;14.02;85.33
62725;BME280;49026;52.600;4.694;2022-10-22T07:43:20;100992.69;;;14.04;85.35
62725;BME280;49026;52.600;4.694;2022-10-22T07:45:45;100989.91;;;14.07;85.82
62725;BME280;49026;52.600;4.694;2022-10-22T07:48:13;100989.75;;;14.11;85.37
62725;BME280;49026;52.600;4.694;2022-10-22T07:50:41;100996.47;;;14.16;85.38
62725;BME280;49026;52.600;4.694;2022-10-22T07:53:07;100997.16;;;14.20;85.24
62725;BME280;49026;52.600;4.694;2022-10-22T07:55:33;100998.66;;;14.25;85.28
62725;BME280;49026;52.600;4.694;2022-10-22T07:57:58;101001.81;;;14.32;85.15
62725;BME280;49026;52.600;4.694;2022-10-22T08:00:28;101005.91;;;14.38;85.43
62725;BME280;49026;52.600;4.694;2022-10-22T08:02:54;101020.41;;;14.46;85.21
62725;BME280;49026;52.600;4.694;2022-10-22T08:05:19;101020.09;;;14.53;85.55
62725;BME280;49026;52.600;4.694;2022-10-22T08:07:44;101014.38;;;14.62;85.20
62725;BME280;49026;52.600;4.694;2022-10-22T08:10:12;101017.44;;;14.70;85.29
62725;BME280;49026;52.600;4.694;2022-10-22T08:12:39;101025.81;;;14.78;85.08
62725;BME280;49026;52.600;4.694;2022-10-22T08:15:08;101023.94;;;14.80;85.14
62725;BME280;49026;52.600;4.694;2022-10-22T08:17:33;101027.84;;;14.73;84.57
62725;BME280;49026;52.600;4.694;2022-10-22T08:20:01;101030.53;;;14.56;84.77
62725;BME280;49026;52.600;4.694;2022-10-22T08:22:26;101040.19;;;14.39;85.28
62725;BME280;49026;52.600;4.694;2022-10-22T08:24:51;101039.97;;;14.26;85.45
62725;BME280;49026;52.600;4.694;2022-10-22T08:27:17;101044.72;;;14.20;85.49
62725;BME280;49026;52.600;4.694;2022-10-22T08:29:42;101041.41;;;14.16;85.50
62725;BME280;49026;52.600;4.694;2022-10-22T08:32:08;101046.75;;;14.15;85.43
62725;BME280;49026;52.600;4.694;2022-10-22T08:34:33;101045.84;;;14.16;85.80
62725;BME280;49026;52.600;4.694;2022-10-22T08:36:58;101049.47;;;14.13;85.48
62725;BME280;49026;52.600;4.694;2022-10-22T08:39:24;101052.38;;;14.08;85.65
62725;BME280;49026;52.600;4.694;2022-10-22T08:42:49;101049.66;;;14.10;85.95
62725;BME280;49026;52.600;4.694;2022-10-22T08:50:34;101070.84;;;14.43;86.27
62725;BME280;49026;52.600;4.694;2022-10-22T08:53:04;101066.16;;;14.49;86.13
62725;BME280;49026;52.600;4.694;2022-10-22T08:55:32;101076.59;;;14.52;86.47
62725;BME280;49026;52.600;4.694;2022-10-22T08:58:13;101070.34;;;14.53;86.04
62725;BME280;49026;52.600;4.694;2022-10-22T09:00:46;101074.72;;;14.54;86.15
62725;BME280;49026;52.600;4.694;2022-10-22T09:03:35;101083.28;;;14.59;86.23
62725;BME280;49026;52.600;4.694;2022-10-22T09:06:10;101089.78;;;14.69;86.25
62725;BME280;49026;52.600;4.694;2022-10-22T09:08:38;101078.97;;;14.74;86.44
62725;BME280;49026;52.600;4.694;2022-10-22T09:11:13;101087.50;;;14.79;86.34
62725;BME280;49026;52.600;4.694;2022-10-22T09:13:47;101099.63;;;14.83;86.47
62725;BME280;49026;52.600;4.694;2022-10-22T09:21:55;101108.38;;;14.68;86.39
62725;BME280;49026;52.600;4.694;2022-10-22T09:24:43;101114.50;;;14.68;86.54
62725;BME280;49026;52.600;4.694;2022-10-22T09:27:14;101112.31;;;14.76;86.49
62725;BME280;49026;52.600;4.694;2022-10-22T09:29:40;101115.75;;;14.78;86.61
62725;BME280;49026;52.600;4.694;2022-10-22T09:32:14;101121.91;;;14.79;86.68
62725;BME280;49026;52.600;4.694;2022-10-22T09:34:40;101125.53;;;14.76;86.71
62725;BME280;49026;52.600;4.694;2022-10-22T09:37:09;101121.28;;;14.74;87.05
62725;BME280;49026;52.600;4.694;2022-10-22T09:39:44;101132.09;;;14.69;87.26
62725;BME280;49026;52.600;4.694;2022-10-22T09:42:15;101132.41;;;14.63;87.42
62725;BME280;49026;52.600;4.694;2022-10-22T09:44:41;101144.88;;;14.61;87.53
62725;BME280;49026;52.600;4.694;2022-10-22T09:47:27;101151.09;;;14.60;87.42
62725;BME280;49026;52.600;4.694;2022-10-22T09:52:33;101143.47;;;14.54;87.06
62725;BME280;49026;52.600;4.694;2022-10-22T09:55:12;101151.25;;;14.57;87.08
62725;BME280;49026;52.600;4.694;2022-10-22T09:57:40;101155.28;;;14.64;87.37
62725;BME280;49026;52.600;4.694;2022-10-22T10:00:08;101159.00;;;14.77;87.33
62725;BME280;49026;52.600;4.694;2022-10-22T10:02:34;101156.81;;;14.86;87.18
62725;BME280;49026;52.600;4.694;2022-10-22T10:05:02;101160.84;;;14.93;87.33
62725;BME280;49026;52.600;4.694;2022-10-22T10:07:32;101168.22;;;15.04;87.23
62725;BME280;49026;52.600;4.694;2022-10-22T10:09:58;101178.13;;;15.16;86.96
62725;BME280;49026;52.600;4.694;2022-10-22T10:12:47;101177.13;;;15.34;87.02
62725;BME280;49026;52.600;4.694;2022-10-22T10:21:00;101185.66;;;15.40;86.82
62725;BME280;49026;52.600;4.694;2022-10-22T10:23:33;101188.25;;;15.41;87.09
62725;BME280;49026;52.600;4.694;2022-10-22T10:26:08;101192.00;;;15.53;87.20
62725;BME280;49026;52.600;4.694;2022-10-22T10:28:47;101191.44;;;15.80;87.30
62725;BME280;49026;52.600;4.694;2022-10-22T10:34:02;101209.00;;;16.43;87.16
62725;BME280;49026;52.600;4.694;2022-10-22T10:39:25;101217.28;;;17.12;85.79
62725;BME280;49026;52.600;4.694;2022-10-22T10:44:40;101216.31;;;17.56;85.78
62725;BME280;49026;52.600;4.694;2022-10-22T10:47:25;101216.66;;;17.78;85.60
62725;BME280;49026;52.600;4.694;2022-10-22T10:50:08;101214.91;;;18.46;85.28
62725;BME280;49026;52.600;4.694;2022-10-22T10:52:44;101219.69;;;18.54;83.76
62725;BME280;49026;52.600;4.694;2022-10-22T10:55:31;101220.41;;;18.03;84.52
62725;BME280;49026;52.600;4.694;2022-10-22T11:00:54;101238.63;;;16.96;85.70
62725;BME280;49026;52.600;4.694;2022-10-22T11:05:54;101238.72;;;15.87;85.64
62725;BME280;49026;52.600;4.694;2022-10-22T11:08:33;101239.66;;;15.37;86.16
62725;BME280;49026;52.600;4.694;2022-10-22T11:11:14;101244.06;;;15.21;87.07
62725;BME280;49026;52.600;4.694;2022-10-22T11:13:51;101243.97;;;15.55;86.73
62725;BME280;49026;52.600;4.694;2022-10-22T11:16:41;101240.00;;;16.42;86.74
62725;BME280;49026;52.600;4.694;2022-10-22T11:21:53;101247.56;;;17.94;83.25
62725;BME280;49026;52.600;4.694;2022-10-22T11:24:40;101251.59;;;18.54;81.94
62725;BME280;49026;52.600;4.694;2022-10-22T11:29:52;101253.38;;;18.68;81.01
62725;BME280;49026;52.600;4.694;2022-10-22T11:32:22;101269.25;;;17.88;82.84
62725;BME280;49026;52.600;4.694;2022-10-22T11:34:53;101268.16;;;17.34;84.09
62725;BME280;49026;52.600;4.694;2022-10-22T11:37:21;101266.13;;;17.23;85.19
62725;BME280;49026;52.600;4.694;2022-10-22T11:39:54;101266.00;;;17.97;85.22
62725;BME280;49026;52.600;4.694;2022-10-22T11:42:39;101265.78;;;18.95;83.24
62725;BME280;49026;52.600;4.694;2022-10-22T11:55:48;101269.63;;;17.82;84.71
62725;BME280;49026;52.600;4.694;2022-10-22T12:00:54;101271.06;;;17.58;84.40
62725;BME280;49026;52.600;4.694;2022-10-22T12:03:37;101272.97;;;17.71;84.39
62725;BME280;49026;52.600;4.694;2022-10-22T12:16:43;101275.50;;;17.72;82.39
62725;BME280;49026;52.600;4.694;2022-10-22T12:21:36;101286.34;;;17.12;83.19
62725;BME280;49026;52.600;4.694;2022-10-22T12:24:03;101278.38;;;16.81;83.42
62725;BME280;49026;52.600;4.694;2022-10-22T12:26:31;101280.41;;;16.62;83.71
62725;BME280;49026;52.600;4.694;2022-10-22T12:29:00;101282.97;;;16.63;83.61
62725;BME280;49026;52.600;4.694;2022-10-22T12:31:34;101290.22;;;17.20;82.83
62725;BME280;49026;52.600;4.694;2022-10-22T12:34:00;101285.88;;;17.91;81.73
62725;BME280;49026;52.600;4.694;2022-10-22T12:36:29;101280.44;;;18.47;80.15
62725;BME280;49026;52.600;4.694;2022-10-22T12:38:59;101278.66;;;18.61;79.27
62725;BME280;49026;52.600;4.694;2022-10-22T12:41:35;101279.91;;;18.15;80.06
62725;BME280;49026;52.600;4.694;2022-10-22T12:44:04;101276.88;;;18.34;81.02
62725;BME280;49026;52.600;4.694;2022-10-22T12:46:32;101280.97;;;18.93;80.27
62725;BME280;49026;52.600;4.694;2022-10-22T12:49:02;101277.16;;;19.48;78.87
62725;BME280;49026;52.600;4.694;2022-10-22T12:51:28;101288.84;;;19.84;77.99
62725;BME280;49026;52.600;4.694;2022-10-22T12:54:01;101280.72;;;19.86;78.34
62725;BME280;49026;52.600;4.694;2022-10-22T12:56:30;101283.75;;;19.68;78.27
62725;BME280;49026;52.600;4.694;2022-10-22T12:59:02;101293.44;;;19.69;78.68
62725;BME280;49026;52.600;4.694;2022-10-22T13:01:37;101274.34;;;19.88;77.50
62725;BME280;49026;52.600;4.694;2022-10-22T13:04:35;101288.31;;;19.79;77.70
62725;BME280;49026;52.600;4.694;2022-10-22T13:10:13;101293.22;;;19.85;77.00
62725;BME280;49026;52.600;4.694;2022-10-22T13:12:43;101300.22;;;19.99;76.67
62725;BME280;49026;52.600;4.694;2022-10-22T13:15:38;101296.09;;;19.82;75.56
62725;BME280;49026;52.600;4.694;2022-10-22T13:20:53;101291.38;;;18.70;78.08
62725;BME280;49026;52.600;4.694;2022-10-22T13:23:24;101295.97;;;18.13;79.17
62725;BME280;49026;52.600;4.694;2022-10-22T13:26:12;101311.75;;;17.59;80.04
62725;BME280;49026;52.600;4.694;2022-10-22T13:28:39;101312.50;;;17.32;81.10
62725;BME280;49026;52.600;4.694;2022-10-22T13:31:16;101298.28;;;17.19;81.96
62725;BME280;49026;52.600;4.694;2022-10-22T13:33:49;101305.28;;;17.06;82.29
62725;BME280;49026;52.600;4.694;2022-10-22T13:36:16;101302.94;;;17.15;82.75
62725;BME280;49026;52.600;4.694;2022-10-22T13:38:45;101295.09;;;17.43;82.37
62725;BME280;49026;52.600;4.694;2022-10-22T13:41:23;101306.47;;;17.88;82.08
62725;BME280;49026;52.600;4.694;2022-10-22T13:43:49;101306.13;;;18.88;80.71
62725;BME280;49026;52.600;4.694;2022-10-22T13:46:15;101298.78;;;19.31;76.65
62725;BME280;49026;52.600;4.694;2022-10-22T13:48:41;101300.81;;;19.27;77.87
62725;BME280;49026;52.600;4.694;2022-10-22T13:51:13;101307.84;;;19.54;77.04
62725;BME280;49026;52.600;4.694;2022-10-22T13:53:40;101304.13;;;19.43;76.93
62725;BME280;49026;52.600;4.694;2022-10-22T13:56:05;101311.97;;;19.71;77.92
62725;BME280;49026;52.600;4.694;2022-10-22T13:58:31;101314.69;;;20.08;76.61
62725;BME280;49026;52.600;4.694;2022-10-22T14:00:58;101320.31;;;19.79;76.13
62725;BME280;49026;52.600;4.694;2022-10-22T14:03:29;101312.63;;;18.84;76.95
62725;BME280;49026;52.600;4.694;2022-10-22T14:05:55;101324.94;;;18.04;78.82
62725;BME280;49026;52.600;4.694;2022-10-22T14:08:25;101329.72;;;17.41;79.92
62725;BME280;49026;52.600;4.694;2022-10-22T14:10:51;101326.59;;;16.90;80.92
62725;BME280;49026;52.600;4.694;2022-10-22T14:13:19;101327.06;;;16.66;81.64
62725;BME280;49026;52.600;4.694;2022-10-22T14:15:45;101329.81;;;16.48;81.66
62725;BME280;49026;52.600;4.694;2022-10-22T14:18:19;101329.47;;;16.39;81.77
62725;BME280;49026;52.600;4.694;2022-10-22T14:20:51;101329.72;;;16.50;81.91
62725;BME280;49026;52.600;4.694;2022-10-22T14:23:22;101324.44;;;16.80;81.43
62725;BME280;49026;52.600;4.694;2022-10-22T14:25:48;101326.00;;;17.29;80.77
62725;BME280;49026;52.600;4.694;2022-10-22T14:28:15;101327.53;;;17.76;79.79
62725;BME280;49026;52.600;4.694;2022-10-22T14:30:43;101335.19;;;18.24;78.42